Kinston, NC

6:41 PM EDT on September 23, 2014 (GMT -0400)
Goldsboro-Wayne Municipal | Change Station
CLOSE
Current Station
Airport
Location: Goldsboro,
Elevation: 135 ft
Nearby Weather Stations

Elev 135 ft 35.46 °N, 77.96 °W | Updated 6 minutes ago

Mostly Cloudy
Mostly Cloudy
59 °F
Feels Like 59 °F
N
6
Wind Variable Wind from NNW

Today
High -- | Low -- °F
--% Chance of Precip.
Yesterday
High -- | Low -- °F
Precip. -- in
6:59 AM 7:05 PM
Waning Crescent, 0% visible
Pressure 30.26 in
Visibility 10.0 miles
Clouds Mostly Cloudy 12000 ft
Dew Point 56 °F
Humidity 91%
Rainfall 0.00 in
Snow Depth Not available.
UV 0 out of 12
Pollen 4.70 out of 12
Air Quality Not available.
Flu Activity Not available.
METAR KGWW 232235Z AUTO 34005KT 10SM -RA BKN120 15/13 A3026 RMK AO2 T01480134

More Conditions Fewer Conditions

Pressure 30.26 in
Visibility 10.0 miles
Clouds Mostly Cloudy 12000 ft
Dew Point 56 °F
Humidity 91%
Rainfall 0.00 in
Snow Depth Not available.
UV 0 out of 12
Pollen 4.70 out of 12
Air Quality Not available.
Flu Activity Not available.
METAR KGWW 232235Z AUTO 34005KT 10SM -RA BKN120 15/13 A3026 RMK AO2 T01480134

More Conditions Fewer Conditions

10-Day Weather Forecast

Almanac

Astronomy

Sep. 23, 2014 Rise Set
Actual Time 6:59 AM EDT 7:05 PM EDT
Civil Twilight 6:33 AM EDT 7:31 PM EDT
Nautical Twilight 6:04 AM EDT 8:00 PM EDT
Astronomical Twilight 5:34 AM EDT 8:30 PM EDT
Moon 6:21 AM EDT 6:44 PM EDT
Length of Visible Light 12h 57m
Length of Day
12h 06m
Tomorrow will be 2m 13s shorter.
Waning Crescent, 0% of the Moon is Illuminated
Today
Waning Crescent
Sep 24
New
Oct 1
First Quarter
Oct 8
Full
Oct 15
Last Quarter

Today's Extremes

State Highs State Lows

Community

WunderPhotos

Upload Photos

1,755,810 photos uploaded!

WunderBlogs® & News

Nearby

Snow Depth

Station Depth Elevation
No new snow has been reported.

Earthquake Activity

City Distance Mag. Time & Date
No recent earthquake activity has been reported nearby.
Minimum magnitude displayed is 2.5.

Coastal Water Temperatures

Place Temperature
No Stations Reporting

Nearby Weather Stations